Time;durP1;ratioP1;P1;durP2;ratioP2;P2;SDS_P1;SDS_P2;PMS_P1;PMS_P2;Temp;Humidity;BMP_temperature;BMP_pressure;BME280_temperature;BME280_humidity;BME280_pressure;Samples;Min_cycle;Max_cycle;Signal;HPM_P1;HPM_P2
2023/03/02 00:02:02;;;;;;;16.48;6.10;;;;;;;5.43;100.00;98198.25;5137917;27;20027;-79
2023/03/02 00:04:38;;;;;;;12.55;5.82;;;;;;;5.46;100.00;98211.41;5151808;27;20027;-79
2023/03/02 00:07:08;;;;;;;11.32;5.63;;;;;;;5.40;100.00;98198.34;5130476;27;20027;-78
2023/03/02 00:09:34;;;;;;;15.05;5.68;;;;;;;5.43;100.00;98204.41;5099985;27;20073;-79
2023/03/02 00:11:59;;;;;;;10.07;4.60;;;;;;;5.40;100.00;98201.88;5103602;27;20478;-79
2023/03/02 00:14:25;;;;;;;12.80;5.03;;;;;;;5.34;100.00;98209.13;5132597;27;20053;-79
2023/03/02 00:16:51;;;;;;;13.88;5.80;;;;;;;5.28;100.00;98202.25;5108301;27;20513;-79
2023/03/02 00:19:16;;;;;;;12.20;5.00;;;;;;;5.24;100.00;98197.94;5117472;27;20027;-79
2023/03/02 00:21:42;;;;;;;12.27;5.43;;;;;;;5.21;100.00;98187.41;5134916;27;20414;-79
2023/03/02 00:24:07;;;;;;;13.02;5.80;;;;;;;5.28;100.00;98186.31;5140614;27;20035;-78
2023/03/02 00:26:34;;;;;;;16.02;5.45;;;;;;;5.36;100.00;98191.38;5124424;27;20519;-79
2023/03/02 00:28:59;;;;;;;13.88;5.97;;;;;;;5.39;100.00;98194.81;5144264;27;20030;-80
2023/03/02 00:31:25;;;;;;;12.18;6.20;;;;;;;5.40;100.00;98193.03;5111641;27;20023;-80
2023/03/02 00:33:53;;;;;;;12.30;5.47;;;;;;;5.41;100.00;98195.63;5123130;27;20053;-80
2023/03/02 00:36:19;;;;;;;14.00;6.13;;;;;;;5.51;100.00;98188.25;5105019;27;20023;-80
2023/03/02 00:38:45;;;;;;;13.23;5.47;;;;;;;5.32;100.00;98165.91;5106294;27;20027;-80
2023/03/02 00:41:12;;;;;;;10.30;4.18;;;;;;;5.41;100.00;98179.72;5120138;27;20121;-79
2023/03/02 00:43:38;;;;;;;14.60;5.65;;;;;;;5.37;100.00;98172.78;5106160;27;20034;-79
2023/03/02 00:46:09;;;;;;;14.90;5.22;;;;;;;5.38;100.00;98165.69;5125240;27;20072;-80
2023/03/02 00:48:34;;;;;;;9.88;5.32;;;;;;;5.40;100.00;98159.41;5131725;27;20019;-79
2023/03/02 00:51:00;;;;;;;13.43;5.32;;;;;;;5.44;100.00;98168.16;5143216;27;20500;-79
2023/03/02 00:53:26;;;;;;;17.20;6.40;;;;;;;5.41;100.00;98152.34;5106298;27;20039;-79
2023/03/02 00:55:53;;;;;;;17.77;8.57;;;;;;;5.42;100.00;98148.75;5100035;27;20482;-79
2023/03/02 00:58:20;;;;;;;18.38;6.95;;;;;;;5.36;100.00;98155.13;5145737;27;20034;-79
2023/03/02 01:00:45;;;;;;;13.93;5.90;;;;;;;5.37;100.00;98150.69;5147244;27;20019;-80
2023/03/02 01:03:11;;;;;;;12.93;5.30;;;;;;;5.43;100.00;98156.66;5097630;27;20042;-78
2023/03/02 01:05:36;;;;;;;11.13;4.93;;;;;;;5.35;100.00;98168.44;5148423;27;20062;-78
2023/03/02 01:08:05;;;;;;;13.85;5.38;;;;;;;5.35;100.00;98157.84;5113196;27;20106;-80
2023/03/02 01:10:31;;;;;;;13.68;6.28;;;;;;;5.37;100.00;98151.56;5122350;27;20058;-78
2023/03/02 01:12:57;;;;;;;14.68;6.43;;;;;;;5.41;100.00;98147.03;5119559;27;20028;-79
2023/03/02 01:15:23;;;;;;;15.75;5.82;;;;;;;5.39;100.00;98146.19;5117171;27;20031;-80
2023/03/02 01:17:48;;;;;;;15.52;6.63;;;;;;;5.43;100.00;98145.19;5132275;27;20050;-80
2023/03/02 01:20:14;;;;;;;11.93;5.70;;;;;;;5.43;100.00;98139.88;5128950;27;20034;-80
2023/03/02 01:22:41;;;;;;;13.38;5.10;;;;;;;5.44;100.00;98136.31;5102603;28;20118;-79
2023/03/02 01:25:07;;;;;;;13.38;5.40;;;;;;;5.25;100.00;98127.22;5097585;28;20558;-79
2023/03/02 01:27:32;;;;;;;10.98;5.05;;;;;;;5.35;100.00;98128.66;5100076;28;20103;-79
2023/03/02 01:29:58;;;;;;;14.88;5.95;;;;;;;5.33;100.00;98126.03;5102460;28;20118;-79
2023/03/02 01:32:23;;;;;;;13.15;5.20;;;;;;;5.25;100.00;98129.84;5145198;27;20042;-79
2023/03/02 01:34:49;;;;;;;12.82;4.78;;;;;;;5.30;100.00;98133.22;5123935;27;20019;-79
2023/03/02 01:37:14;;;;;;;18.60;5.45;;;;;;;5.31;100.00;98145.56;5105365;28;20031;-80
2023/03/02 01:39:40;;;;;;;11.10;4.90;;;;;;;5.43;100.00;98142.53;5110993;28;20011;-78
2023/03/02 01:42:05;;;;;;;11.80;5.25;;;;;;;5.33;100.00;98135.78;5145003;27;20051;-79
2023/03/02 01:44:44;;;;;;;12.70;5.28;;;;;;;5.36;100.00;98133.03;5109800;28;20030;-80
2023/03/02 01:47:13;;;;;;;15.48;5.63;;;;;;;5.47;100.00;98136.22;5108007;28;20023;-80
2023/03/02 01:49:41;;;;;;;12.43;5.30;;;;;;;5.38;100.00;98126.75;5113830;28;20027;-78
2023/03/02 01:52:08;;;;;;;16.27;5.97;;;;;;;5.37;100.00;98126.81;5097016;28;20397;-78
2023/03/02 01:54:34;;;;;;;15.65;6.15;;;;;;;5.42;100.00;98122.22;5105570;28;20110;-78
2023/03/02 01:57:01;;;;;;;18.35;6.10;;;;;;;5.47;100.00;98130.91;5130109;28;20053;-78
2023/03/02 01:59:27;;;;;;;15.32;5.75;;;;;;;5.50;100.00;98130.81;5142149;27;20025;-79
2023/03/02 02:01:54;;;;;;;14.13;6.43;;;;;;;5.51;100.00;98121.91;5106662;28;20182;-79
2023/03/02 02:04:22;;;;;;;15.30;5.93;;;;;;;5.46;100.00;98114.13;5117202;28;20015;-79
2023/03/02 02:06:53;;;;;;;20.08;6.40;;;;;;;5.54;100.00;98121.81;5133762;27;20371;-79
2023/03/02 02:09:20;;;;;;;15.53;7.20;;;;;;;5.34;100.00;98109.22;5111008;27;20061;-78
2023/03/02 02:11:45;;;;;;;15.85;6.75;;;;;;;5.25;100.00;98109.53;5150158;27;20689;-79
2023/03/02 02:14:11;;;;;;;17.73;7.22;;;;;;;5.29;100.00;98111.13;5115430;27;20019;-80
2023/03/02 02:17:10;;;;;;;;;;;;;;;;;;;;;
2023/03/02 02:19:49;;;;;;;15.43;6.30;;;;;;;5.16;100.00;98079.78;5126620;27;20512;-80
2023/03/02 02:22:32;;;;;;;16.48;6.55;;;;;;;5.32;100.00;98108.38;5117967;27;20479;-79
2023/03/02 02:25:03;;;;;;;18.80;6.72;;;;;;;5.25;100.00;98108.66;5117359;27;20037;-79
2023/03/02 02:27:32;;;;;;;21.23;7.50;;;;;;;5.32;100.00;98108.38;5102847;27;20031;-78
2023/03/02 02:29:58;;;;;;;17.05;6.68;;;;;;;5.35;100.00;98110.09;5142021;27;20059;-78
2023/03/02 02:32:27;;;;;;;16.55;6.68;;;;;;;5.38;100.00;98108.19;5119254;27;20425;-79
2023/03/02 02:35:03;;;;;;;13.82;5.53;;;;;;;5.25;100.00;98098.03;5114165;27;20039;-78
2023/03/02 02:37:35;;;;;;;15.13;5.72;;;;;;;5.31;100.00;98113.75;5148124;27;20047;-79
2023/03/02 02:40:06;;;;;;;12.82;5.75;;;;;;;5.40;100.00;98113.47;5106924;27;20032;-79
2023/03/02 02:42:42;;;;;;;15.85;6.18;;;;;;;5.50;100.00;98121.97;5127820;27;20026;-79
2023/03/02 02:45:26;;;;;;;11.85;5.38;;;;;;;5.46;100.00;98118.56;5101509;27;20027;-79
2023/03/02 02:47:54;;;;;;;13.23;5.88;;;;;;;5.28;100.00;98097.94;5101690;27;20103;-79
2023/03/02 02:50:32;;;;;;;12.05;5.53;;;;;;;5.30;100.00;98107.56;5108807;27;20048;-80
2023/03/02 02:53:08;;;;;;;15.30;5.13;;;;;;;5.20;100.00;98100.81;5115294;27;20050;-78
2023/03/02 02:55:34;;;;;;;12.60;5.60;;;;;;;5.19;100.00;98100.88;5102574;27;20050;-79
2023/03/02 02:58:08;;;;;;;15.02;5.43;;;;;;;5.18;100.00;98112.41;5124297;27;20486;-79
2023/03/02 03:00:33;;;;;;;13.77;5.60;;;;;;;5.25;100.00;98116.59;5135216;27;20034;-79
2023/03/02 03:03:29;;;;;;;11.18;5.40;;;;;;;5.26;100.00;98118.34;5130971;27;20398;-79
2023/03/02 03:06:00;;;;;;;16.75;5.80;;;;;;;5.27;100.00;98110.31;5101873;27;20479;-79
2023/03/02 03:08:47;;;;;;;15.65;5.90;;;;;;;5.36;100.00;98128.59;5099485;27;20114;-78
2023/03/02 03:11:18;;;;;;;16.70;7.15;;;;;;;5.35;100.00;98126.00;5122219;27;20410;-79
2023/03/02 03:13:45;;;;;;;24.77;6.57;;;;;;;5.25;100.00;98108.66;5102393;27;20026;-79
2023/03/02 03:16:14;;;;;;;15.80;6.50;;;;;;;5.28;100.00;98109.41;5116094;27;20033;-79
2023/03/02 03:18:44;;;;;;;16.70;7.78;;;;;;;5.23;100.00;98106.03;5108805;27;20482;-79
2023/03/02 03:21:09;;;;;;;16.95;7.75;;;;;;;5.28;100.00;98109.41;5115591;27;20406;-79
2023/03/02 03:23:37;;;;;;;18.35;7.80;;;;;;;5.26;100.00;98105.09;5102307;27;20050;-79
2023/03/02 03:26:06;;;;;;;18.27;7.15;;;;;;;5.28;100.00;98111.19;5110676;27;20042;-77
2023/03/02 03:28:32;;;;;;;17.27;6.65;;;;;;;5.25;100.00;98113.94;5149117;27;20023;-79
2023/03/02 03:30:58;;;;;;;17.65;7.38;;;;;;;5.18;100.00;98096.50;5124704;27;20033;-80
2023/03/02 03:33:23;;;;;;;12.90;6.50;;;;;;;5.19;100.00;98098.22;5141479;27;20023;-79
2023/03/02 03:35:49;;;;;;;16.00;6.15;;;;;;;5.29;100.00;98105.81;5129470;27;20088;-78
2023/03/02 03:38:15;;;;;;;18.40;6.80;;;;;;;5.39;100.00;98122.31;5125766;27;20110;-79
2023/03/02 03:40:41;;;;;;;16.40;5.63;;;;;;;5.25;100.00;98112.16;5127938;27;20054;-79
2023/03/02 03:43:06;;;;;;;17.15;6.22;;;;;;;5.25;100.00;98119.25;5112757;27;20461;-80
2023/03/02 03:45:32;;;;;;;15.18;6.15;;;;;;;5.16;100.00;98114.25;5109037;27;20079;-79
2023/03/02 03:47:57;;;;;;;23.42;6.57;;;;;;;5.10;100.00;98111.78;5158584;27;20083;-78
2023/03/02 03:50:23;;;;;;;17.23;6.53;;;;;;;5.15;100.00;98123.97;5123511;27;20027;-79
2023/03/02 03:52:48;;;;;;;16.70;6.50;;;;;;;5.17;100.00;98122.13;5114157;27;20483;-79
2023/03/02 03:55:14;;;;;;;33.05;7.65;;;;;;;5.22;100.00;98129.97;5131069;27;20035;-78
2023/03/02 03:57:40;;;;;;;19.48;7.47;;;;;;;5.25;100.00;98132.50;5114047;27;20023;-78
2023/03/02 04:00:09;;;;;;;22.08;6.40;;;;;;;5.19;100.00;98130.94;5115458;27;20130;-78
2023/03/02 04:02:36;;;;;;;21.08;6.97;;;;;;;5.22;100.00;98133.47;5129483;27;20486;-79
2023/03/02 04:05:05;;;;;;;21.02;6.85;;;;;;;5.26;100.00;98127.13;5099445;27;20030;-78
2023/03/02 04:07:32;;;;;;;21.23;7.28;;;;;;;5.22;100.00;98120.22;5098312;27;20118;-79
2023/03/02 04:10:02;;;;;;;19.83;7.18;;;;;;;5.28;100.00;98114.72;5101070;27;20038;-79
2023/03/02 04:12:32;;;;;;;20.15;7.72;;;;;;;5.34;100.00;98133.09;5114263;27;20031;-78
2023/03/02 04:14:58;;;;;;;15.32;6.05;;;;;;;5.26;100.00;98121.00;5106730;27;20027;-79
2023/03/02 04:17:24;;;;;;;14.55;6.43;;;;;;;5.19;100.00;98111.50;5105223;27;20030;-79
2023/03/02 04:19:49;;;;;;;20.48;6.70;;;;;;;5.24;100.00;98128.13;5103416;27;20023;-79
2023/03/02 04:22:15;;;;;;;21.38;7.07;;;;;;;5.30;100.00;98136.75;5147993;27;20525;-79
2023/03/02 04:24:42;;;;;;;17.40;6.70;;;;;;;5.29;100.00;98136.81;5125357;27;20041;-80
2023/03/02 04:27:07;;;;;;;13.35;5.85;;;;;;;5.28;100.00;98135.06;5128545;27;20564;-80
2023/03/02 04:29:34;;;;;;;19.13;5.93;;;;;;;5.31;100.00;98130.53;5107277;27;20061;-79
2023/03/02 04:32:00;;;;;;;18.67;7.00;;;;;;;5.31;100.00;98121.72;5122084;27;20020;-79
2023/03/02 04:34:25;;;;;;;19.25;6.20;;;;;;;5.30;100.00;98126.13;5106181;27;20030;-78
2023/03/02 04:36:51;;;;;;;16.38;6.70;;;;;;;5.31;100.00;98124.34;5100010;27;20059;-77
2023/03/02 04:39:17;;;;;;;17.48;6.07;;;;;;;5.31;100.00;98119.94;5122093;27;20088;-79
2023/03/02 04:41:44;;;;;;;18.95;7.10;;;;;;;5.42;100.00;98123.09;5113514;27;20484;-76
2023/03/02 04:44:10;;;;;;;15.82;7.10;;;;;;;5.42;100.00;98123.09;5114648;27;20023;-78
2023/03/02 04:46:35;;;;;;;16.92;6.80;;;;;;;5.41;100.00;98118.69;5157378;27;20018;-79
2023/03/02 04:49:01;;;;;;;18.42;7.20;;;;;;;5.45;100.00;98128.31;5141442;27;20027;-79
2023/03/02 04:51:30;;;;;;;14.25;6.80;;;;;;;5.45;100.00;98127.44;5143245;27;20122;-77
2023/03/02 04:53:59;;;;;;;14.38;7.10;;;;;;;5.42;100.00;98138.13;5113477;27;20084;-80
2023/03/02 04:56:24;;;;;;;20.08;7.45;;;;;;;5.36;100.00;98133.03;5118673;27;20496;-78
2023/03/02 04:58:50;;;;;;;22.45;7.13;;;;;;;5.39;100.00;98117.00;5152970;27;20094;-79
2023/03/02 05:01:17;;;;;;;15.73;6.15;;;;;;;5.50;100.00;98125.50;5149683;27;20123;-77
2023/03/02 05:03:43;;;;;;;18.08;6.10;;;;;;;5.49;100.00;98126.41;5121208;27;20095;-78
2023/03/02 05:06:09;;;;;;;16.98;6.22;;;;;;;5.53;100.00;98124.53;5103868;27;20024;-77
2023/03/02 05:08:34;;;;;;;17.35;6.70;;;;;;;5.48;100.00;98114.06;5121845;27;20164;-78
2023/03/02 05:11:00;;;;;;;14.00;5.82;;;;;;;5.52;100.00;98107.75;5137841;27;20065;-79
2023/03/02 05:13:26;;;;;;;13.43;5.65;;;;;;;5.49;100.00;98113.16;5096709;27;20039;-77
2023/03/02 05:15:52;;;;;;;16.85;6.53;;;;;;;5.46;100.00;98107.94;5114596;28;20490;-77
2023/03/02 05:18:18;;;;;;;25.52;9.45;;;;;;;5.48;100.00;98122.03;5097662;27;20031;-77
2023/03/02 05:20:44;;;;;;;18.90;8.45;;;;;;;5.40;100.00;98121.41;5126145;27;20037;-76
2023/03/02 05:23:22;;;;;;;17.70;7.82;;;;;;;5.39;100.00;98112.59;5101713;27;20152;-78
2023/03/02 05:25:51;;;;;;;22.67;9.90;;;;;;;5.43;100.00;98126.63;5107890;28;20034;-78
2023/03/02 05:28:20;;;;;;;31.83;11.35;;;;;;;5.39;100.00;98119.66;5107122;28;20031;-78
2023/03/02 05:30:46;;;;;;;27.77;13.32;;;;;;;5.46;100.00;98132.69;5114802;28;20149;-78
2023/03/02 05:33:12;;;;;;;21.10;9.10;;;;;;;5.49;100.00;98134.38;5122910;28;20111;-77
2023/03/02 05:35:37;;;;;;;21.75;10.35;;;;;;;5.54;100.00;98144.84;5142427;27;20398;-77
2023/03/02 05:38:04;;;;;;;23.20;10.07;;;;;;;5.62;100.00;98149.00;5097311;28;20019;-78
2023/03/02 05:40:30;;;;;;;20.88;9.52;;;;;;;5.71;100.00;98151.34;5113362;27;20023;-78
2023/03/02 05:42:55;;;;;;;19.27;9.05;;;;;;;5.69;100.00;98150.50;5118437;27;20023;-77
2023/03/02 05:45:27;;;;;;;20.00;8.98;;;;;;;5.74;100.00;98151.25;5152585;27;20405;-78
2023/03/02 05:47:53;;;;;;;22.40;10.57;;;;;;;5.84;100.00;98157.13;5092083;27;20110;-78
2023/03/02 05:50:19;;;;;;;24.60;10.88;;;;;;;5.64;100.00;98125.91;5142798;27;20114;-77
2023/03/02 05:52:45;;;;;;;24.08;10.80;;;;;;;5.78;100.00;98141.41;5120256;27;20028;-77
2023/03/02 05:55:15;;;;;;;22.38;10.60;;;;;;;5.83;100.00;98135.00;5104866;27;20061;-77
2023/03/02 05:57:40;;;;;;;23.92;11.88;;;;;;;5.95;100.00;98133.75;5110662;27;20030;-78
2023/03/02 06:00:11;;;;;;;24.02;12.85;;;;;;;6.05;100.00;98140.50;5124992;27;20477;-77
2023/03/02 06:02:39;;;;;;;25.08;12.85;;;;;;;5.97;100.00;98124.81;5138520;27;20092;-77
2023/03/02 06:05:07;;;;;;;29.17;12.05;;;;;;;5.89;100.00;98129.53;5116455;27;20053;-78
2023/03/02 06:07:33;;;;;;;25.70;12.50;;;;;;;5.71;100.00;98114.19;5107183;27;20388;-77
2023/03/02 06:09:58;;;;;;;24.77;10.73;;;;;;;5.61;100.00;98118.06;5152897;27;20091;-78
2023/03/02 06:12:24;;;;;;;28.05;12.57;;;;;;;5.49;100.00;98099.88;5102167;27;20030;-78
2023/03/02 06:14:49;;;;;;;23.10;11.20;;;;;;;5.60;100.00;98126.94;5115689;27;20030;-78
2023/03/02 06:17:15;;;;;;;18.88;9.45;;;;;;;5.50;100.00;98109.59;5124904;27;20029;-78
2023/03/02 06:19:40;;;;;;;18.10;8.90;;;;;;;5.48;100.00;98125.53;5100851;27;20110;-77
2023/03/02 06:22:06;;;;;;;27.00;12.73;;;;;;;5.40;100.00;98126.72;5131555;27;20523;-77
2023/03/02 06:24:32;;;;;;;29.42;14.13;;;;;;;5.44;100.00;98145.13;5122280;27;20039;-77
2023/03/02 06:26:57;;;;;;;30.30;13.18;;;;;;;5.43;100.00;98145.19;5117394;27;20080;-77
2023/03/02 06:29:23;;;;;;;27.88;13.70;;;;;;;5.34;100.00;98137.53;5100635;27;20029;-77
2023/03/02 06:31:48;;;;;;;26.48;12.85;;;;;;;5.43;100.00;98153.16;5117522;27;20034;-78
2023/03/02 06:34:14;;;;;;;27.38;15.00;;;;;;;5.51;100.00;98164.38;5101418;27;20033;-78
2023/03/02 06:36:39;;;;;;;27.58;12.82;;;;;;;5.48;100.00;98164.47;5152158;27;20015;-78
2023/03/02 06:39:06;;;;;;;20.08;10.00;;;;;;;5.60;100.00;98179.16;5125842;27;20027;-78
2023/03/02 06:41:34;;;;;;;24.17;11.07;;;;;;;5.75;100.00;98178.66;5105390;27;20020;-78
2023/03/02 06:43:59;;;;;;;30.67;10.95;;;;;;;5.78;100.00;98174.09;5108973;27;20050;-78
2023/03/02 06:46:25;;;;;;;24.65;12.18;;;;;;;5.87;100.00;98176.50;5117637;27;20031;-78
2023/03/02 06:48:50;;;;;;;18.52;9.60;;;;;;;5.95;100.00;98171.78;5112938;27;20034;-78
2023/03/02 06:51:16;;;;;;;21.67;10.10;;;;;;;6.07;100.00;98174.94;5143158;27;20149;-78
2023/03/02 06:53:42;;;;;;;24.63;11.48;;;;;;;6.11;100.00;98168.63;5099776;27;20019;-78
2023/03/02 06:56:08;;;;;;;51.50;20.67;;;;;;;6.13;100.00;98169.41;5117080;27;20421;-78
2023/03/02 06:58:34;;;;;;;37.50;13.40;;;;;;;6.21;100.00;98159.41;5102994;27;20037;-78
2023/03/02 07:00:59;;;;;;;25.80;10.32;;;;;;;6.17;100.00;98158.66;5116690;27;20475;-78
2023/03/02 07:03:25;;;;;;;23.95;9.30;;;;;;;6.13;100.00;98143.72;5118697;27;20030;-78
2023/03/02 07:05:51;;;;;;;22.38;9.82;;;;;;;6.16;100.00;98143.63;5142591;27;20027;-78
2023/03/02 07:08:26;;;;;;;28.60;9.40;;;;;;;6.17;100.00;98140.06;5110154;27;20126;-77
2023/03/02 07:10:52;;;;;;;22.17;10.60;;;;;;;6.21;100.00;98128.41;5103425;27;20027;-78
2023/03/02 07:13:17;;;;;;;19.15;8.73;;;;;;;6.17;100.00;98112.63;5108198;27;20038;-78
2023/03/02 07:15:46;;;;;;;19.00;9.35;;;;;;;6.16;100.00;98118.84;5116650;27;20033;-78
2023/03/02 07:18:12;;;;;;;21.23;8.88;;;;;;;6.07;100.00;98113.88;5133920;27;20030;-76
2023/03/02 07:20:37;;;;;;;18.08;8.77;;;;;;;5.90;100.00;98103.84;5151190;27;20031;-78
2023/03/02 07:23:04;;;;;;;18.08;8.45;;;;;;;5.99;100.00;98109.72;5140501;27;20039;-78
2023/03/02 07:25:30;;;;;;;26.58;9.55;;;;;;;6.08;100.00;98111.16;5116973;27;20501;-78
2023/03/02 07:27:55;;;;;;;19.17;8.32;;;;;;;6.20;100.00;98117.81;5133595;27;20054;-77
2023/03/02 07:30:21;;;;;;;16.05;7.32;;;;;;;6.14;100.00;98110.94;5101882;27;20035;-77
2023/03/02 07:32:56;;;;;;;17.55;8.40;;;;;;;6.11;100.00;98104.88;5126088;27;20035;-77
2023/03/02 07:35:22;;;;;;;21.67;10.25;;;;;;;6.14;100.00;98094.16;5083652;27;20030;-77
2023/03/02 07:37:47;;;;;;;22.73;10.32;;;;;;;6.18;100.00;98095.78;5128825;27;20027;-77
2023/03/02 07:40:13;;;;;;;24.10;11.07;;;;;;;6.23;100.00;98096.47;5120198;27;20033;-78
2023/03/02 07:42:39;;;;;;;40.90;14.15;;;;;;;6.20;100.00;98089.50;5116065;27;20051;-77
2023/03/02 07:45:05;;;;;;;17.27;7.97;;;;;;;6.18;100.00;98087.81;5150307;27;20054;-77
2023/03/02 07:47:31;;;;;;;41.00;14.45;;;;;;;6.22;100.00;98089.41;5116408;27;20115;-78
2023/03/02 07:49:57;;;;;;;16.77;7.63;;;;;;;6.23;100.00;98081.41;5102911;27;20038;-78
2023/03/02 07:52:22;;;;;;;15.77;8.02;;;;;;;6.22;100.00;98073.47;5098629;27;20023;-77
2023/03/02 07:54:48;;;;;;;17.45;8.23;;;;;;;6.26;100.00;98067.13;5123777;27;20530;-78
2023/03/02 07:57:15;;;;;;;21.38;8.70;;;;;;;6.34;100.00;98063.28;5147517;27;20066;-78
2023/03/02 07:59:41;;;;;;;22.35;8.52;;;;;;;6.39;100.00;98065.78;5099085;27;20059;-78
2023/03/02 08:02:13;;;;;;;18.27;7.90;;;;;;;6.37;100.00;98052.53;5100277;27;20031;-77
2023/03/02 08:04:39;;;;;;;16.50;7.60;;;;;;;6.40;100.00;98052.41;5100301;27;20455;-78
2023/03/02 08:07:04;;;;;;;12.60;6.00;;;;;;;6.18;100.00;98030.25;5118905;27;20095;-79
2023/03/02 08:09:30;;;;;;;22.63;10.88;;;;;;;6.28;100.00;98036.94;5134127;27;20019;-78
2023/03/02 08:11:55;;;;;;;21.17;9.30;;;;;;;6.14;100.00;98035.72;5119917;27;20027;-78
2023/03/02 08:14:21;;;;;;;20.08;9.35;;;;;;;6.17;100.00;98043.56;5110030;27;20034;-78
2023/03/02 08:16:51;;;;;;;26.02;10.18;;;;;;;6.43;100.00;98059.41;5119933;27;20034;-79
2023/03/02 08:19:18;;;;;;;19.23;9.10;;;;;;;6.49;100.00;98056.56;5108653;27;20027;-79
2023/03/02 08:21:43;;;;;;;20.10;9.95;;;;;;;6.40;100.00;98038.25;5098376;27;20461;-79
2023/03/02 08:24:10;;;;;;;18.48;10.10;;;;;;;6.50;100.00;98048.50;5104171;27;20058;-79
2023/03/02 08:26:36;;;;;;;27.17;10.63;;;;;;;6.65;100.00;98055.03;5111011;27;20023;-78
2023/03/02 08:29:01;;;;;;;16.92;8.40;;;;;;;6.67;100.00;98028.41;5102572;27;20034;-78
2023/03/02 08:31:33;;;;;;;15.13;8.52;;;;;;;6.70;100.00;98012.31;5141469;27;20502;-78
2023/03/02 08:33:58;;;;;;;23.27;9.85;;;;;;;6.78;100.00;98031.50;5103756;27;20027;-79
2023/03/02 08:36:25;;;;;;;17.65;8.88;;;;;;;6.86;100.00;98034.72;5098228;27;20027;-79
2023/03/02 08:38:51;;;;;;;16.92;8.30;;;;;;;6.81;100.00;98026.06;5115061;27;20015;-79
2023/03/02 08:41:18;;;;;;;15.55;7.68;;;;;;;6.81;100.00;98024.25;5133143;27;20509;-78
2023/03/02 08:43:44;;;;;;;20.95;8.82;;;;;;;6.85;100.00;98025.00;5098064;27;20494;-79
2023/03/02 08:46:11;;;;;;;20.60;9.55;;;;;;;6.95;100.00;98016.59;5105378;27;20035;-78
2023/03/02 08:48:37;;;;;;;34.05;12.88;;;;;;;6.96;100.00;97999.72;5108888;27;20478;-78
2023/03/02 08:51:06;;;;;;;56.00;17.08;;;;;;;7.09;100.00;98000.97;5101261;27;20061;-80
2023/03/02 08:53:35;;;;;;;31.08;13.27;;;;;;;7.04;100.00;97991.44;5140861;27;20023;-79
2023/03/02 08:56:00;;;;;;;25.58;12.68;;;;;;;7.06;100.00;97993.09;5118890;27;20023;-78
2023/03/02 08:58:26;;;;;;;26.23;12.35;;;;;;;7.25;100.00;98001.19;5104325;27;20023;-80
2023/03/02 09:00:51;;;;;;;25.27;10.73;;;;;;;7.16;100.00;97995.38;5124938;27;20027;-79
2023/03/02 09:03:17;;;;;;;22.98;10.75;;;;;;;7.02;100.00;97987.97;5110136;27;20027;-79
2023/03/02 09:05:45;;;;;;;16.13;8.02;;;;;;;7.11;100.00;97998.22;5123195;27;20456;-79
2023/03/02 09:08:11;;;;;;;19.33;9.10;;;;;;;7.21;100.00;97980.09;5127042;27;20397;-78
2023/03/02 09:10:37;;;;;;;16.70;7.63;;;;;;;6.97;100.00;97982.84;5105278;27;20455;-79
2023/03/02 09:13:04;;;;;;;12.48;6.07;;;;;;;7.17;100.00;97992.66;5119603;27;20083;-79
2023/03/02 09:15:32;;;;;;;15.50;7.63;;;;;;;7.26;100.00;97978.97;5102876;28;20031;-81
2023/03/02 09:18:00;;;;;;;19.45;7.53;;;;;;;7.24;100.00;97959.56;5140087;27;20027;-79
2023/03/02 09:20:25;;;;;;;20.58;6.95;;;;;;;7.19;100.00;97955.38;5107992;27;20027;-79
2023/03/02 09:22:51;;;;;;;19.20;7.80;;;;;;;7.01;100.00;97954.34;5122723;27;20080;-78
2023/03/02 09:25:19;;;;;;;15.35;6.55;;;;;;;7.00;100.00;97949.94;5126769;27;20031;-78
2023/03/02 09:27:45;;;;;;;16.48;8.45;;;;;;;7.23;100.00;97954.31;5122463;27;20409;-79
2023/03/02 09:30:12;;;;;;;16.90;7.55;;;;;;;7.25;100.00;97947.13;5105005;28;20087;-78
2023/03/02 09:32:37;;;;;;;27.85;11.43;;;;;;;7.14;100.00;97939.56;5126632;28;20094;-78
2023/03/02 09:35:03;;;;;;;28.17;10.90;;;;;;;7.28;100.00;97960.28;5099840;28;20035;-78
2023/03/02 09:37:29;;;;;;;66.05;19.17;;;;;;;7.07;100.00;97954.91;5103786;28;20027;-78
2023/03/02 09:39:54;;;;;;;47.63;17.33;;;;;;;7.04;100.00;97957.72;5132790;28;20105;-79
2023/03/02 09:42:30;;;;;;;32.78;12.70;;;;;;;7.18;100.00;97975.78;5098789;28;20034;-79
2023/03/02 09:44:58;;;;;;;24.85;11.85;;;;;;;7.20;100.00;97981.03;5115580;28;20467;-79
2023/03/02 09:47:27;;;;;;;21.25;10.55;;;;;;;7.24;100.00;97971.97;5119383;28;20031;-79
2023/03/02 09:50:34;;;;;;;22.02;10.15;;;;;;;7.12;100.00;97961.84;5115115;28;20027;-79
2023/03/02 09:53:23;;;;;;;21.88;9.75;;;;;;;7.24;100.00;97962.22;5104090;28;20027;-79
2023/03/02 09:56:01;;;;;;;16.95;8.57;;;;;;;7.12;100.00;97956.53;5148972;27;20027;-80
2023/03/02 09:59:04;;;;;;;18.33;9.40;;;;;;;6.95;100.00;97960.75;5124075;28;20071;-79
2023/03/02 10:01:33;;;;;;;;;;;;;;;6.94;100.00;97959.03;5084610;28;20127;-79
2023/03/02 10:04:20;;;;;;;22.00;11.70;;;;;;;6.76;100.00;97943.84;5112452;28;19968;-78
2023/03/02 10:06:46;;;;;;;24.50;11.10;;;;;;;6.79;100.00;97969.44;5098152;28;20084;-78
2023/03/02 10:09:12;;;;;;;17.30;9.13;;;;;;;6.91;100.00;97983.09;5098525;28;20430;-78
2023/03/02 10:11:49;;;;;;;13.18;6.47;;;;;;;7.02;100.00;97985.31;5099806;27;20027;-79
2023/03/02 10:14:52;;;;;;;24.38;9.18;;;;;;;6.94;100.00;97974.13;5147373;27;20486;-80
2023/03/02 10:17:32;;;;;;;22.98;11.13;;;;;;;7.06;100.00;97982.47;5155739;27;20034;-78
2023/03/02 10:20:45;;;;;;;26.25;13.38;;;;;;;6.95;100.00;97968.72;5132141;27;20041;-78
2023/03/02 10:23:38;;;;;;;41.42;17.45;;;;;;;6.97;100.00;97963.38;5119761;28;20043;-79
2023/03/02 10:26:28;;;;;;;49.38;19.83;;;;;;;7.08;100.00;97972.63;5094237;27;20041;-79
2023/03/02 10:29:02;;;;;;;37.78;16.35;;;;;;;7.13;100.00;97961.81;5129173;27;20027;-80
2023/03/02 10:31:31;;;;;;;32.97;15.07;;;;;;;6.94;100.00;97955.50;5131272;27;20027;-79
2023/03/02 10:33:56;;;;;;;27.58;13.00;;;;;;;7.01;100.00;97949.03;5128896;27;20027;-79
2023/03/02 10:36:26;;;;;;;26.88;13.38;;;;;;;7.20;100.00;97946.47;5126111;27;20038;-79
2023/03/02 10:38:53;;;;;;;23.75;11.15;;;;;;;7.27;100.00;97946.13;5131261;27;20034;-78
2023/03/02 10:41:23;;;;;;;31.55;14.38;;;;;;;7.19;100.00;97936.75;5105898;27;20512;-79
2023/03/02 10:43:52;;;;;;;28.52;13.77;;;;;;;7.05;100.00;97939.97;5101815;27;20030;-79
2023/03/02 10:46:17;;;;;;;37.40;16.60;;;;;;;7.04;100.00;97927.63;5126008;27;20436;-79
2023/03/02 10:48:59;;;;;;;35.33;14.55;;;;;;;7.13;100.00;97927.22;5102575;27;20118;-80
2023/03/02 10:51:36;;;;;;;34.30;16.77;;;;;;;7.02;100.00;97916.16;5105395;27;20050;-80
2023/03/02 10:54:03;;;;;;;27.38;13.35;;;;;;;7.08;100.00;97932.72;5117655;27;20042;-79
2023/03/02 10:56:29;;;;;;;25.58;13.68;;;;;;;6.81;100.00;97925.03;5117411;27;20034;-79
2023/03/02 10:59:01;;;;;;;34.53;13.88;;;;;;;6.72;100.00;97930.72;5117496;27;20441;-79
2023/03/02 11:01:27;;;;;;;28.27;12.18;;;;;;;6.52;100.00;97920.91;5121378;27;20022;-79
2023/03/02 11:03:56;;;;;;;20.85;10.43;;;;;;;6.60;100.00;97942.72;5109559;27;20126;-78
2023/03/02 11:06:23;;;;;;;23.30;11.13;;;;;;;6.60;100.00;97937.41;5118836;27;20418;-79
2023/03/02 11:09:04;;;;;;;32.97;14.18;;;;;;;6.71;100.00;97945.81;5102189;27;20467;-79
2023/03/02 11:11:29;;;;;;;35.80;15.18;;;;;;;6.85;100.00;97948.78;5112674;27;20023;-80
2023/03/02 11:14:05;;;;;;;20.88;11.00;;;;;;;6.72;100.00;97936.91;5114307;27;20124;-80
2023/03/02 11:16:31;;;;;;;25.90;12.95;;;;;;;6.73;100.00;97927.16;5122092;27;20098;-79
2023/03/02 11:19:04;;;;;;;43.38;22.10;;;;;;;6.69;100.00;97930.84;5130881;27;20086;-79
2023/03/02 11:21:51;;;;;;;41.45;19.67;;;;;;;6.89;100.00;97939.72;5099658;27;20015;-79
2023/03/02 11:24:25;;;;;;;21.38;11.38;;;;;;;6.97;100.00;97934.97;5118945;27;20027;-79
2023/03/02 11:27:01;;;;;;;32.83;16.17;;;;;;;6.98;100.00;97944.66;5124935;27;20493;-79
2023/03/02 11:29:33;;;;;;;26.88;13.70;;;;;;;6.85;100.00;97926.63;5102476;27;20042;-79
2023/03/02 11:32:01;;;;;;;23.07;11.97;;;;;;;6.95;100.00;97933.31;5131919;27;20057;-79